Cason, Texas
Current Conditions -  °F | °C
As of 12:15 PM on Thursday 23 Oct 2014 (Local Time) from KOSA Reporting Station
Scattered Clouds Scattered Clouds  
Wind Chill: 69°   Ceiling: Unl
Heat Index: 69°   Visibility: 10mi
Dew Point: 47°   Wind: 3mph
Humidity: 47%   Direction: 140°SE
Pressure: 30.2"   Gusts: NA
Location:  33.04°N, 94.82°W
Report Text: KOSA 231715Z AUTO 14003KT 10SM SCT120 20/09 A3020 RMK AO1 T02030086
Loading
Personal Weather Stations






























Interactive Weather Map
Tropical Storm Tracking
New forecast layout! Learn more

10-Day Weather Forecast

Advertisements
Track Severe Weather on mobile